createdAt,value
2017-11-30T00:01:08.741Z,90.70
2017-11-30T00:03:35.311Z,90.50
2017-11-30T00:06:01.890Z,90.60
2017-11-30T00:08:29.969Z,90.60
2017-11-30T00:10:57.591Z,90.60
2017-11-30T00:13:26.769Z,90.50
2017-11-30T00:15:53.540Z,90.50
2017-11-30T00:18:20.159Z,90.40
2017-11-30T00:20:46.587Z,90.50
2017-11-30T00:23:12.973Z,90.60
2017-11-30T00:25:39.526Z,90.50
2017-11-30T00:28:06.895Z,90.60
2017-11-30T00:30:33.268Z,90.70
2017-11-30T00:33:00.038Z,90.70
2017-11-30T00:35:27.527Z,90.80
2017-11-30T00:37:53.999Z,90.70
2017-11-30T00:40:20.714Z,90.70
2017-11-30T00:42:59.255Z,90.70
2017-11-30T00:45:25.827Z,90.80
2017-11-30T00:47:52.254Z,90.90
2017-11-30T00:50:18.695Z,90.90
2017-11-30T00:52:45.228Z,90.90
2017-11-30T00:55:11.687Z,90.80
2017-11-30T00:57:38.088Z,90.90
2017-11-30T01:00:04.806Z,90.80
2017-11-30T01:02:31.291Z,90.90
2017-11-30T01:04:57.747Z,90.90
2017-11-30T01:07:25.019Z,90.90
2017-11-30T01:09:52.140Z,90.90
2017-11-30T01:12:18.589Z,90.90
2017-11-30T01:14:45.022Z,90.90
2017-11-30T01:17:11.437Z,90.90
2017-11-30T01:19:38.621Z,90.70
2017-11-30T01:22:05.143Z,90.70
2017-11-30T01:24:31.486Z,90.50
2017-11-30T01:26:58.594Z,90.60
2017-11-30T01:29:25.934Z,90.60
2017-11-30T01:31:52.530Z,90.60
2017-11-30T01:34:18.969Z,90.60
2017-11-30T01:36:45.454Z,90.60
2017-11-30T01:39:11.835Z,90.60
2017-11-30T01:41:38.948Z,90.70
2017-11-30T01:44:06.678Z,90.70
2017-11-30T01:46:33.424Z,90.80
2017-11-30T01:49:00.085Z,90.80
2017-11-30T01:51:26.777Z,90.90
2017-11-30T01:53:53.864Z,90.90
2017-11-30T01:56:20.424Z,91.00
2017-11-30T01:58:46.876Z,90.90
2017-11-30T02:01:13.343Z,91.10
2017-11-30T02:03:39.838Z,91.10
2017-11-30T02:06:07.215Z,91.20
2017-11-30T02:08:33.640Z,91.30
2017-11-30T02:11:00.860Z,91.30
2017-11-30T02:13:27.394Z,91.30
2017-11-30T02:15:53.822Z,91.40
2017-11-30T02:18:20.189Z,91.50
2017-11-30T02:20:46.684Z,91.30
2017-11-30T02:23:13.122Z,91.30
2017-11-30T02:25:39.552Z,91.20
2017-11-30T02:28:06.232Z,91.50
2017-11-30T02:30:33.528Z,91.30
2017-11-30T02:33:00.248Z,91.30
2017-11-30T02:35:27.476Z,91.30
2017-11-30T02:37:53.966Z,91.30
2017-11-30T02:40:20.418Z,91.40
2017-11-30T02:42:47.417Z,91.50
2017-11-30T02:45:15.080Z,91.50
2017-11-30T02:47:41.610Z,91.50
2017-11-30T02:50:08.160Z,91.50
2017-11-30T02:52:34.620Z,91.50
2017-11-30T02:55:01.255Z,91.40
2017-11-30T02:57:27.828Z,91.40
2017-11-30T02:59:54.427Z,91.30
2017-11-30T03:02:21.098Z,91.40
2017-11-30T03:04:47.745Z,91.50
2017-11-30T03:07:15.100Z,91.60
2017-11-30T03:09:41.964Z,91.60
2017-11-30T03:12:08.557Z,91.60
2017-11-30T03:14:36.093Z,91.50
2017-11-30T03:17:02.898Z,91.60
2017-11-30T03:19:36.378Z,91.60
2017-11-30T03:22:02.829Z,91.60
2017-11-30T03:24:31.225Z,91.70
2017-11-30T03:27:13.747Z,91.70
2017-11-30T03:29:40.382Z,91.70
2017-11-30T03:32:08.597Z,91.70
2017-11-30T03:34:35.316Z,91.70
2017-11-30T03:37:01.890Z,91.70
2017-11-30T03:39:28.497Z,91.70
2017-11-30T03:41:55.011Z,91.70
2017-11-30T03:44:22.577Z,91.70
2017-11-30T03:46:49.218Z,91.70
2017-11-30T03:49:16.337Z,91.70
2017-11-30T03:51:42.842Z,91.60
2017-11-30T03:54:09.426Z,91.40
2017-11-30T03:56:36.279Z,91.30
2017-11-30T03:59:02.987Z,91.20
2017-11-30T04:01:29.525Z,91.10
2017-11-30T04:03:56.408Z,91.10
2017-11-30T04:06:23.742Z,91.00
2017-11-30T04:08:50.341Z,91.00
2017-11-30T04:11:17.364Z,91.00
2017-11-30T04:13:44.460Z,91.30
2017-11-30T04:16:11.199Z,91.10
2017-11-30T04:18:37.783Z,91.10
2017-11-30T04:21:05.024Z,91.40
2017-11-30T04:23:32.035Z,91.40
2017-11-30T04:25:59.064Z,91.30
2017-11-30T04:28:25.661Z,91.40
2017-11-30T04:30:52.332Z,91.40
2017-11-30T04:33:19.796Z,91.50
2017-11-30T04:35:46.716Z,91.60
2017-11-30T04:38:13.399Z,91.60
2017-11-30T04:40:39.938Z,91.70
2017-11-30T04:43:06.573Z,91.90
2017-11-30T04:45:34.874Z,92.00
2017-11-30T04:48:01.422Z,92.00
2017-11-30T04:50:29.111Z,92.00
2017-11-30T04:52:55.627Z,92.10
2017-11-30T04:55:22.498Z,92.30
2017-11-30T04:57:49.130Z,92.70
2017-11-30T05:00:15.767Z,92.50
2017-11-30T05:02:42.354Z,92.50
2017-11-30T05:05:08.852Z,92.60
2017-11-30T05:07:35.559Z,92.60
2017-11-30T05:10:07.203Z,92.60
2017-11-30T05:12:34.160Z,92.60
2017-11-30T05:15:00.829Z,92.60
2017-11-30T05:17:28.027Z,92.50
2017-11-30T05:19:55.311Z,92.50
2017-11-30T05:22:21.896Z,92.50
2017-11-30T05:24:48.399Z,92.50
2017-11-30T05:27:16.007Z,92.60
2017-11-30T05:29:43.322Z,92.60
2017-11-30T05:32:10.074Z,92.60
2017-11-30T05:34:37.535Z,92.50
2017-11-30T05:37:04.177Z,92.60
2017-11-30T05:39:30.875Z,92.50
2017-11-30T05:42:04.289Z,92.50
2017-11-30T05:44:30.861Z,92.40
2017-11-30T05:46:57.703Z,92.40
2017-11-30T05:49:25.779Z,92.30
2017-11-30T05:52:00.294Z,92.40
2017-11-30T05:54:26.938Z,92.30
2017-11-30T05:56:53.903Z,92.30
2017-11-30T05:59:20.714Z,92.30
2017-11-30T06:01:47.323Z,92.20
2017-11-30T06:04:14.775Z,92.20
2017-11-30T06:06:41.397Z,92.10
2017-11-30T06:09:07.910Z,92.20
2017-11-30T06:11:34.543Z,92.10
2017-11-30T06:14:01.565Z,92.00
2017-11-30T06:16:28.152Z,92.00
2017-11-30T06:18:54.803Z,92.10
2017-11-30T06:21:21.421Z,92.10
2017-11-30T06:23:48.692Z,92.00
2017-11-30T06:26:15.241Z,92.10
2017-11-30T06:28:41.774Z,92.40
2017-11-30T06:31:09.204Z,92.00
2017-11-30T06:33:36.546Z,92.10
2017-11-30T06:36:03.228Z,92.10
2017-11-30T06:38:30.196Z,92.10
2017-11-30T06:40:57.801Z,92.10
2017-11-30T06:43:24.748Z,92.10
2017-11-30T06:45:51.411Z,92.00
2017-11-30T06:48:18.111Z,92.00
2017-11-30T06:50:44.918Z,91.90
2017-11-30T06:53:11.602Z,91.90
2017-11-30T06:55:38.269Z,91.90
2017-11-30T06:58:04.901Z,91.90
2017-11-30T07:00:31.501Z,92.00
2017-11-30T07:02:58.084Z,91.90
2017-11-30T07:05:26.234Z,91.90
2017-11-30T07:07:52.771Z,91.90
2017-11-30T07:10:19.301Z,92.00
2017-11-30T07:12:46.896Z,92.10
2017-11-30T07:15:13.467Z,92.10
2017-11-30T07:17:40.186Z,92.10
2017-11-30T07:20:06.971Z,92.20
2017-11-30T07:22:33.524Z,92.20
2017-11-30T07:25:00.014Z,92.30
2017-11-30T07:27:26.513Z,92.30
2017-11-30T07:29:53.063Z,92.60
2017-11-30T07:32:19.529Z,92.60
2017-11-30T07:34:45.981Z,92.70
2017-11-30T07:37:12.486Z,92.60
2017-11-30T07:39:38.989Z,92.60
2017-11-30T07:42:05.551Z,92.50
2017-11-30T07:44:32.123Z,92.50
2017-11-30T07:46:58.560Z,92.40
2017-11-30T07:49:26.222Z,92.40
2017-11-30T07:51:52.912Z,92.40
2017-11-30T07:54:20.678Z,92.40
2017-11-30T07:56:47.473Z,92.40
2017-11-30T07:59:14.307Z,92.40
2017-11-30T08:01:40.864Z,92.40
2017-11-30T08:04:07.664Z,92.40
2017-11-30T08:06:34.248Z,92.30
2017-11-30T08:09:00.940Z,92.20
2017-11-30T08:11:27.680Z,92.10
2017-11-30T08:13:55.332Z,92.10
2017-11-30T08:16:22.744Z,91.90
2017-11-30T08:18:50.031Z,91.80
2017-11-30T08:21:16.789Z,91.60
2017-11-30T08:23:43.404Z,91.40
2017-11-30T08:26:10.080Z,91.40
2017-11-30T08:28:36.759Z,91.50
2017-11-30T08:31:03.431Z,91.50
2017-11-30T08:33:29.976Z,91.40
2017-11-30T08:35:56.489Z,91.40
2017-11-30T08:38:23.063Z,91.40
2017-11-30T08:40:49.894Z,91.40
2017-11-30T08:43:16.428Z,91.40
2017-11-30T08:45:42.987Z,91.50
2017-11-30T08:48:09.750Z,91.50
2017-11-30T08:50:36.379Z,91.50
2017-11-30T08:53:03.671Z,92.00
2017-11-30T08:55:30.632Z,91.70
2017-11-30T08:57:57.134Z,91.70
2017-11-30T09:00:23.826Z,91.70
2017-11-30T09:02:50.381Z,91.50
2017-11-30T09:05:16.942Z,91.50
2017-11-30T09:07:43.552Z,91.40
2017-11-30T09:10:10.894Z,91.60
2017-11-30T09:12:37.453Z,91.60
2017-11-30T09:15:04.094Z,91.60
2017-11-30T09:17:30.718Z,91.30
2017-11-30T09:19:57.281Z,91.30
2017-11-30T09:22:23.811Z,91.30
2017-11-30T09:24:50.707Z,91.30
2017-11-30T09:27:17.331Z,91.30
2017-11-30T09:29:43.871Z,91.30
2017-11-30T09:32:10.469Z,91.20
2017-11-30T09:34:37.092Z,91.00
2017-11-30T09:37:04.906Z,90.60
2017-11-30T09:39:31.600Z,90.60
2017-11-30T09:41:58.163Z,90.70
2017-11-30T09:44:24.760Z,90.60
2017-11-30T09:46:51.481Z,90.80
2017-11-30T09:49:18.782Z,90.50
2017-11-30T09:51:46.304Z,90.50
2017-11-30T09:54:13.309Z,90.30
2017-11-30T09:56:39.878Z,90.10
2017-11-30T09:59:07.102Z,90.50
2017-11-30T10:01:33.748Z,90.10
2017-11-30T10:04:00.475Z,90.10
2017-11-30T10:06:27.055Z,90.10
2017-11-30T10:08:53.932Z,90.10
2017-11-30T10:11:20.518Z,90.20
2017-11-30T10:13:47.099Z,90.20
2017-11-30T10:16:13.782Z,90.10
2017-11-30T10:18:40.315Z,90.00
2017-11-30T10:21:06.916Z,90.00
2017-11-30T10:23:33.570Z,90.10
2017-11-30T10:26:00.175Z,90.10
2017-11-30T10:28:26.887Z,90.00
2017-11-30T10:30:53.980Z,90.00
2017-11-30T10:33:20.546Z,89.30
2017-11-30T10:35:47.239Z,89.60
2017-11-30T10:38:13.883Z,89.10
2017-11-30T10:40:40.456Z,88.80
2017-11-30T10:43:07.831Z,89.40
2017-11-30T10:45:35.444Z,88.70
2017-11-30T10:48:02.120Z,88.10
2017-11-30T10:50:29.417Z,87.00
2017-11-30T10:52:57.017Z,87.00
2017-11-30T10:55:23.553Z,85.90
2017-11-30T10:57:50.109Z,85.80
2017-11-30T11:00:17.241Z,85.70
2017-11-30T11:02:44.098Z,85.00
2017-11-30T11:05:10.791Z,85.20
2017-11-30T11:07:37.342Z,85.50
2017-11-30T11:10:04.040Z,86.00
2017-11-30T11:12:30.822Z,85.80
2017-11-30T11:14:57.379Z,85.20
2017-11-30T11:17:24.105Z,85.30
2017-11-30T11:19:50.653Z,84.80
2017-11-30T11:22:17.298Z,84.70
2017-11-30T11:24:43.886Z,84.20
2017-11-30T11:27:10.482Z,83.30
2017-11-30T11:29:37.785Z,83.30
2017-11-30T11:32:04.597Z,84.20
2017-11-30T11:34:31.276Z,84.00
2017-11-30T11:36:58.052Z,83.70
2017-11-30T11:39:24.488Z,83.00
2017-11-30T11:41:51.642Z,83.20
2017-11-30T11:44:18.731Z,83.50
2017-11-30T11:46:45.411Z,83.30
2017-11-30T11:49:12.074Z,83.90
2017-11-30T11:51:38.560Z,82.70
2017-11-30T11:54:05.164Z,82.40
2017-11-30T11:56:32.395Z,84.20
2017-11-30T11:58:59.005Z,84.20
2017-11-30T12:01:25.565Z,83.90
2017-11-30T12:03:52.034Z,83.90
2017-11-30T12:06:19.204Z,82.20
2017-11-30T12:08:45.837Z,81.80
2017-11-30T12:11:12.520Z,81.90
2017-11-30T12:13:40.447Z,81.70
2017-11-30T12:16:07.808Z,84.10
2017-11-30T12:18:35.122Z,83.90
2017-11-30T12:21:01.752Z,83.80
2017-11-30T12:23:28.352Z,83.50
2017-11-30T12:25:55.096Z,83.70
2017-11-30T12:28:21.816Z,84.10
2017-11-30T12:30:48.449Z,83.70
2017-11-30T12:33:15.109Z,84.60
2017-11-30T12:35:42.016Z,84.30
2017-11-30T12:38:08.686Z,84.60
2017-11-30T12:40:35.267Z,84.70
2017-11-30T12:43:01.973Z,84.30
2017-11-30T12:45:28.571Z,84.30
2017-11-30T12:47:55.519Z,84.50
2017-11-30T12:50:22.264Z,84.70
2017-11-30T12:52:48.935Z,84.70
2017-11-30T12:55:15.840Z,85.20
2017-11-30T12:57:42.575Z,85.50
2017-11-30T13:00:09.333Z,85.30
2017-11-30T13:02:36.163Z,85.00
2017-11-30T13:05:03.202Z,84.90
2017-11-30T13:07:29.860Z,85.00
2017-11-30T13:09:56.423Z,85.20
2017-11-30T13:12:23.273Z,85.30
2017-11-30T13:14:50.761Z,85.40
2017-11-30T13:17:17.312Z,85.40
2017-11-30T13:19:44.337Z,85.10
2017-11-30T13:22:10.959Z,85.40
2017-11-30T13:24:37.606Z,84.80
2017-11-30T13:27:04.178Z,85.70
2017-11-30T13:29:30.637Z,85.80
2017-11-30T13:31:57.153Z,85.40
2017-11-30T13:34:23.820Z,85.10
2017-11-30T13:36:50.298Z,85.00
2017-11-30T13:39:17.033Z,85.00
2017-11-30T13:41:49.985Z,85.70
2017-11-30T13:44:16.598Z,86.40
2017-11-30T13:46:43.208Z,86.60
2017-11-30T13:49:10.449Z,85.90
2017-11-30T13:51:37.062Z,86.00
2017-11-30T13:54:04.532Z,86.10
2017-11-30T13:56:32.611Z,85.90
2017-11-30T13:58:59.166Z,85.80
2017-11-30T14:01:25.730Z,86.00
2017-11-30T14:03:52.172Z,85.80
2017-11-30T14:06:18.682Z,85.90
2017-11-30T14:08:45.219Z,85.80
2017-11-30T14:11:12.406Z,86.20
2017-11-30T14:13:38.885Z,86.80
2017-11-30T14:16:05.386Z,87.10
2017-11-30T14:18:31.893Z,87.30
2017-11-30T14:20:58.326Z,87.40
2017-11-30T14:23:25.633Z,87.40
2017-11-30T14:25:53.495Z,87.60
2017-11-30T14:28:20.963Z,87.90
2017-11-30T14:30:48.604Z,88.10
2017-11-30T14:33:15.165Z,88.10
2017-11-30T14:35:42.388Z,88.70
2017-11-30T14:38:21.837Z,88.60
2017-11-30T14:40:48.386Z,89.10
2017-11-30T14:43:14.967Z,89.10
2017-11-30T14:45:41.535Z,88.80
2017-11-30T14:48:08.164Z,88.70
2017-11-30T14:50:36.312Z,88.90
2017-11-30T14:53:02.871Z,89.10
2017-11-30T14:55:29.378Z,89.70
2017-11-30T14:57:55.984Z,89.70
2017-11-30T15:00:22.518Z,90.00
2017-11-30T15:02:49.796Z,90.10
2017-11-30T15:05:16.445Z,90.10
2017-11-30T15:07:45.779Z,90.20
2017-11-30T15:10:12.366Z,90.20
2017-11-30T15:12:39.636Z,90.20
2017-11-30T15:15:07.726Z,90.30
2017-11-30T15:17:35.925Z,90.20
2017-11-30T15:20:02.740Z,90.10
2017-11-30T15:22:30.207Z,90.30
2017-11-30T15:24:56.849Z,90.30
2017-11-30T15:27:23.307Z,90.40
2017-11-30T15:29:49.804Z,90.40
2017-11-30T15:32:16.272Z,90.70
2017-11-30T15:34:43.587Z,90.80
2017-11-30T15:37:10.176Z,90.90
2017-11-30T15:39:36.799Z,90.80
2017-11-30T15:42:03.352Z,90.80
2017-11-30T15:44:31.200Z,90.90
2017-11-30T15:46:57.759Z,90.90
2017-11-30T15:49:24.295Z,91.00
2017-11-30T15:51:51.444Z,91.10
2017-11-30T15:54:18.104Z,91.30
2017-11-30T15:56:44.697Z,91.20
2017-11-30T15:59:12.531Z,91.30
2017-11-30T16:01:39.100Z,91.30
2017-11-30T16:04:05.941Z,91.30
2017-11-30T16:06:32.558Z,91.20
2017-11-30T16:08:59.192Z,91.10
2017-11-30T16:11:25.721Z,91.10
2017-11-30T16:13:52.204Z,91.00
2017-11-30T16:16:19.383Z,91.00
2017-11-30T16:18:45.811Z,91.00
2017-11-30T16:21:12.462Z,91.10
2017-11-30T16:23:39.294Z,91.30
2017-11-30T16:26:05.800Z,91.30
2017-11-30T16:28:32.857Z,91.40
2017-11-30T16:31:00.524Z,91.50
2017-11-30T16:33:27.163Z,91.40
2017-11-30T16:35:55.631Z,91.50
2017-11-30T16:38:23.550Z,91.80
2017-11-30T16:40:50.320Z,92.00
2017-11-30T16:43:17.213Z,92.00
2017-11-30T16:45:44.101Z,92.00
2017-11-30T16:48:10.728Z,92.00
2017-11-30T16:50:38.054Z,92.20
2017-11-30T16:53:04.683Z,92.20
2017-11-30T16:55:31.256Z,92.30
2017-11-30T16:57:58.441Z,92.20
2017-11-30T17:00:27.112Z,92.20
2017-11-30T17:02:53.854Z,92.10
2017-11-30T17:05:20.978Z,92.10
2017-11-30T17:07:47.594Z,92.30
2017-11-30T17:10:14.247Z,92.40
2017-11-30T17:12:41.220Z,92.50
2017-11-30T17:15:08.673Z,92.60
2017-11-30T17:17:36.325Z,92.70
2017-11-30T17:20:02.942Z,92.60
2017-11-30T17:22:30.077Z,92.70
2017-11-30T17:24:56.759Z,92.70
2017-11-30T17:27:24.605Z,92.70
2017-11-30T17:29:51.392Z,92.70
2017-11-30T17:32:18.140Z,92.80
2017-11-30T17:34:44.897Z,92.80
2017-11-30T17:37:11.612Z,92.80
2017-11-30T17:39:38.452Z,92.90
2017-11-30T17:42:05.665Z,92.90
2017-11-30T17:44:32.912Z,93.00
2017-11-30T17:47:00.899Z,93.10
2017-11-30T17:49:28.182Z,93.10
2017-11-30T17:51:55.289Z,93.20
2017-11-30T17:54:22.480Z,93.30
2017-11-30T17:56:49.510Z,93.40
2017-11-30T17:59:17.824Z,93.40
2017-11-30T18:01:46.055Z,93.40
2017-11-30T18:04:13.802Z,93.40
2017-11-30T18:06:40.366Z,93.40
2017-11-30T18:09:07.467Z,93.40
2017-11-30T18:11:35.234Z,93.50
2017-11-30T18:14:03.907Z,93.40
2017-11-30T18:16:32.384Z,93.40
2017-11-30T18:18:59.410Z,93.40
2017-11-30T18:21:27.560Z,93.40
2017-11-30T18:23:55.442Z,93.30
2017-11-30T18:26:23.393Z,93.30
2017-11-30T18:28:50.345Z,93.30
2017-11-30T18:31:16.847Z,93.20
2017-11-30T18:33:45.398Z,93.30
2017-11-30T18:36:13.168Z,93.40
2017-11-30T18:38:39.679Z,93.40
2017-11-30T18:41:07.687Z,93.40
2017-11-30T18:43:34.838Z,93.40
2017-11-30T18:46:03.153Z,93.60
2017-11-30T18:48:30.066Z,93.80
2017-11-30T18:50:56.577Z,93.50
2017-11-30T18:53:23.171Z,93.50
2017-11-30T18:55:49.753Z,93.50
2017-11-30T18:58:16.322Z,93.50
2017-11-30T19:00:43.666Z,93.40
2017-11-30T19:03:11.470Z,93.30
2017-11-30T19:05:38.091Z,93.40
2017-11-30T19:08:05.816Z,93.40
2017-11-30T19:10:32.823Z,93.40
2017-11-30T19:13:00.031Z,93.50
2017-11-30T19:15:26.699Z,93.50
2017-11-30T19:17:53.846Z,93.60
2017-11-30T19:20:20.481Z,93.60
2017-11-30T19:22:46.981Z,93.60
2017-11-30T19:25:13.731Z,93.50
2017-11-30T19:27:40.456Z,93.50
2017-11-30T19:30:07.827Z,93.40
2017-11-30T19:32:34.387Z,93.30
2017-11-30T19:35:00.943Z,93.30
2017-11-30T19:37:27.847Z,93.20
2017-11-30T19:39:54.395Z,93.20
2017-11-30T19:42:20.881Z,93.20
2017-11-30T19:44:48.420Z,93.20
2017-11-30T19:47:15.078Z,93.20
2017-11-30T19:49:42.510Z,93.20
2017-11-30T19:52:09.699Z,93.20
2017-11-30T19:54:36.309Z,93.20
2017-11-30T19:57:02.818Z,93.20
2017-11-30T19:59:29.443Z,93.20
2017-11-30T20:01:56.286Z,93.10
2017-11-30T20:04:22.915Z,93.00
2017-11-30T20:06:49.505Z,93.00
2017-11-30T20:09:16.105Z,93.00
2017-11-30T20:11:42.651Z,92.80
2017-11-30T20:14:11.230Z,92.80
2017-11-30T20:16:38.025Z,92.90
2017-11-30T20:19:04.514Z,92.80
2017-11-30T20:21:31.091Z,92.80
2017-11-30T20:23:57.918Z,92.70
2017-11-30T20:26:24.399Z,92.70
2017-11-30T20:28:50.988Z,92.60
2017-11-30T20:31:17.505Z,92.70
2017-11-30T20:33:44.069Z,92.70
2017-11-30T20:36:10.561Z,92.90
2017-11-30T20:38:37.128Z,92.70
2017-11-30T20:41:03.843Z,92.70
2017-11-30T20:43:30.411Z,92.70
2017-11-30T20:45:58.344Z,92.70
2017-11-30T20:48:24.994Z,92.70
2017-11-30T20:50:51.626Z,92.80
2017-11-30T20:53:18.805Z,92.80
2017-11-30T20:55:45.301Z,92.90
2017-11-30T20:58:12.535Z,92.80
2017-11-30T21:00:39.248Z,92.80
2017-11-30T21:03:05.832Z,92.70
2017-11-30T21:05:33.116Z,92.60
2017-11-30T21:08:00.400Z,92.70
2017-11-30T21:10:26.937Z,92.70
2017-11-30T21:12:53.795Z,92.50
2017-11-30T21:15:20.337Z,92.20
2017-11-30T21:17:47.710Z,92.30
2017-11-30T21:20:14.253Z,92.30
2017-11-30T21:22:40.876Z,92.50
2017-11-30T21:25:08.410Z,92.80
2017-11-30T21:27:35.127Z,92.80
2017-11-30T21:30:01.682Z,92.90
2017-11-30T21:32:28.173Z,93.00
2017-11-30T21:34:56.007Z,93.10
2017-11-30T21:37:22.704Z,93.20
2017-11-30T21:39:49.209Z,93.20
2017-11-30T21:42:15.811Z,93.20
2017-11-30T21:44:42.471Z,93.30
2017-11-30T21:47:08.950Z,93.40
2017-11-30T21:49:35.532Z,93.50
2017-11-30T21:52:03.540Z,93.60
2017-11-30T21:54:30.126Z,93.50
2017-11-30T21:56:56.719Z,93.50
2017-11-30T21:59:23.649Z,93.50
2017-11-30T22:01:50.346Z,93.30
2017-11-30T22:04:16.945Z,93.40
2017-11-30T22:06:44.985Z,93.40
2017-11-30T22:09:11.627Z,93.40
2017-11-30T22:11:49.156Z,93.50
2017-11-30T22:14:16.569Z,93.50
2017-11-30T22:16:44.831Z,93.50
2017-11-30T22:19:12.184Z,93.50
2017-11-30T22:21:38.924Z,93.40
2017-11-30T22:24:05.492Z,93.40
2017-11-30T22:26:33.288Z,93.40
2017-11-30T22:28:59.824Z,93.30
2017-11-30T22:31:27.216Z,93.40
2017-11-30T22:33:54.474Z,93.80
2017-11-30T22:36:21.755Z,93.40
2017-11-30T22:38:48.931Z,93.50
2017-11-30T22:41:15.551Z,93.60
2017-11-30T22:43:42.963Z,93.50
2017-11-30T22:46:10.025Z,93.50
2017-11-30T22:48:36.790Z,93.50
2017-11-30T22:51:03.456Z,93.40
2017-11-30T22:53:30.085Z,93.50
2017-11-30T22:55:56.837Z,93.60
2017-11-30T22:58:23.446Z,93.60
2017-11-30T23:00:49.978Z,93.50
2017-11-30T23:03:16.820Z,93.50
2017-11-30T23:05:43.511Z,93.50
2017-11-30T23:08:10.131Z,93.50
2017-11-30T23:10:37.499Z,93.50
2017-11-30T23:13:04.020Z,93.60
2017-11-30T23:15:30.657Z,93.60
2017-11-30T23:17:58.274Z,93.60
2017-11-30T23:20:24.825Z,93.60
2017-11-30T23:22:51.512Z,93.60
2017-11-30T23:25:21.289Z,93.70
2017-11-30T23:27:47.956Z,93.70
2017-11-30T23:30:14.565Z,93.80
2017-11-30T23:32:41.944Z,93.70
2017-11-30T23:35:08.588Z,93.70
2017-11-30T23:37:35.116Z,93.70
2017-11-30T23:40:02.094Z,93.80
2017-11-30T23:42:29.711Z,93.80
2017-11-30T23:44:56.183Z,93.80
2017-11-30T23:47:22.856Z,93.80
2017-11-30T23:49:49.422Z,93.80
2017-11-30T23:52:15.922Z,93.80
2017-11-30T23:54:42.550Z,94.20
2017-11-30T23:57:09.762Z,93.80
2017-11-30T23:59:36.317Z,93.90
